createdAt,value
2024-02-14T00:02:39.807Z,2.93
2024-02-14T00:05:27.502Z,3.37
2024-02-14T00:08:16.010Z,2.23
2024-02-14T00:11:03.283Z,2.63
2024-02-14T00:13:51.101Z,2.80
2024-02-14T00:16:40.049Z,2.10
2024-02-14T00:19:27.279Z,2.83
2024-02-14T00:22:14.270Z,2.60
2024-02-14T00:25:01.266Z,2.40
2024-02-14T00:27:48.879Z,2.80
2024-02-14T00:30:35.880Z,3.00
2024-02-14T00:33:30.834Z,2.87
2024-02-14T00:36:18.907Z,3.83
2024-02-14T00:39:06.000Z,2.90
2024-02-14T00:41:54.030Z,2.73
2024-02-14T00:44:41.127Z,2.47
2024-02-14T00:47:28.155Z,2.37
2024-02-14T00:50:15.397Z,2.30
2024-02-14T00:53:02.512Z,2.53
2024-02-14T00:55:49.489Z,2.27
2024-02-14T00:58:36.510Z,2.47
2024-02-14T01:01:24.161Z,2.30
2024-02-14T01:04:11.219Z,2.70
2024-02-14T01:06:59.177Z,2.40
2024-02-14T01:09:46.135Z,2.53
2024-02-14T01:12:33.121Z,2.40
2024-02-14T01:15:21.245Z,1.97
2024-02-14T01:18:08.429Z,2.40
2024-02-14T01:20:55.572Z,2.30
2024-02-14T01:23:42.762Z,2.20
2024-02-14T01:26:29.764Z,2.30
2024-02-14T01:29:17.805Z,2.37
2024-02-14T01:32:05.544Z,2.20
2024-02-14T01:34:52.672Z,2.30
2024-02-14T01:37:40.150Z,2.53
2024-02-14T01:40:27.181Z,2.20
2024-02-14T01:43:23.513Z,2.30
2024-02-14T01:46:10.487Z,2.43
2024-02-14T01:49:13.375Z,2.20
2024-02-14T01:52:04.367Z,2.70
2024-02-14T01:54:52.640Z,2.20
2024-02-14T01:57:40.898Z,2.50
2024-02-14T02:00:28.852Z,2.07
2024-02-14T02:03:16.595Z,2.00
2024-02-14T02:06:04.686Z,1.90
2024-02-14T02:08:51.847Z,2.00
2024-02-14T02:11:49.947Z,2.13
2024-02-14T02:14:56.941Z,2.57
2024-02-14T02:18:07.221Z,2.40
2024-02-14T02:21:14.501Z,2.87
2024-02-14T02:24:03.665Z,2.60
2024-02-14T02:26:50.753Z,2.13
2024-02-14T02:29:57.723Z,2.17
2024-02-14T02:32:44.936Z,2.70
2024-02-14T02:35:32.535Z,2.80
2024-02-14T02:38:31.391Z,2.57
2024-02-14T02:41:38.445Z,3.10
2024-02-14T02:44:43.867Z,2.50
2024-02-14T02:48:09.275Z,3.00
2024-02-14T02:51:18.979Z,3.00
2024-02-14T02:54:28.295Z,3.03
2024-02-14T02:57:37.839Z,2.83
2024-02-14T03:00:24.975Z,2.70
2024-02-14T03:03:29.173Z,2.57
2024-02-14T03:06:28.001Z,2.47
2024-02-14T03:09:30.099Z,3.13
2024-02-14T03:12:36.986Z,3.23
2024-02-14T03:15:44.991Z,2.40
2024-02-14T03:18:32.137Z,2.93
2024-02-14T03:21:19.178Z,2.73
2024-02-14T03:24:06.757Z,3.03
2024-02-14T03:26:54.834Z,2.63
2024-02-14T03:29:42.150Z,2.87
2024-02-14T03:32:29.221Z,2.60
2024-02-14T03:35:16.584Z,2.50
2024-02-14T03:38:04.429Z,2.57
2024-02-14T03:40:51.416Z,2.60
2024-02-14T03:43:38.417Z,2.30
2024-02-14T03:46:25.726Z,2.33
2024-02-14T03:49:13.794Z,2.63
2024-02-14T03:52:02.466Z,2.87
2024-02-14T03:54:49.773Z,2.80
2024-02-14T03:57:39.909Z,2.73
2024-02-14T04:00:27.172Z,2.60
2024-02-14T04:03:14.271Z,2.43
2024-02-14T04:06:01.936Z,2.60
2024-02-14T04:08:49.150Z,2.37
2024-02-14T04:11:36.221Z,2.20
2024-02-14T04:14:23.212Z,2.70
2024-02-14T04:17:12.200Z,2.60
2024-02-14T04:19:59.394Z,2.70
2024-02-14T04:22:46.444Z,2.43
2024-02-14T04:25:33.566Z,2.97
2024-02-14T04:28:20.524Z,2.93
2024-02-14T04:31:07.546Z,2.60
2024-02-14T04:34:09.446Z,3.27
2024-02-14T04:36:57.726Z,2.90
2024-02-14T04:39:45.100Z,2.60
2024-02-14T04:42:32.118Z,2.83
2024-02-14T04:45:19.607Z,3.07
2024-02-14T04:48:15.343Z,3.30
2024-02-14T04:51:05.330Z,3.20
2024-02-14T04:53:53.279Z,2.57
2024-02-14T04:56:40.289Z,2.83
2024-02-14T04:59:27.540Z,2.60
2024-02-14T05:02:14.587Z,2.93
2024-02-14T05:05:02.754Z,2.43
2024-02-14T05:07:51.507Z,2.33
2024-02-14T05:10:38.759Z,2.40
2024-02-14T05:13:25.763Z,2.33
2024-02-14T05:16:12.818Z,2.60
2024-02-14T05:19:00.143Z,2.50
2024-02-14T05:21:47.465Z,2.40
2024-02-14T05:24:36.569Z,2.67
2024-02-14T05:27:23.552Z,2.50
2024-02-14T05:30:10.879Z,2.40
2024-02-14T05:33:09.589Z,2.67
2024-02-14T05:35:56.694Z,2.90
2024-02-14T05:38:43.836Z,2.43
2024-02-14T05:41:33.852Z,2.37
2024-02-14T05:44:22.225Z,2.70
2024-02-14T05:47:09.764Z,2.43
2024-02-14T05:49:56.815Z,2.90
2024-02-14T05:52:43.828Z,2.60
2024-02-14T05:55:30.779Z,2.93
2024-02-14T05:58:20.244Z,3.07
2024-02-14T06:01:07.449Z,3.27
2024-02-14T06:03:54.545Z,4.60
2024-02-14T06:06:41.650Z,4.07
2024-02-14T06:09:28.638Z,3.90
2024-02-14T06:12:15.668Z,3.90
2024-02-14T06:15:03.124Z,4.10
2024-02-14T06:17:53.627Z,4.10
2024-02-14T06:20:40.850Z,3.90
2024-02-14T06:23:27.877Z,4.83
2024-02-14T06:26:15.485Z,4.20
2024-02-14T06:29:05.237Z,3.50
2024-02-14T06:31:53.443Z,3.70
2024-02-14T06:34:40.619Z,3.60
2024-02-14T06:37:27.749Z,3.40
2024-02-14T06:40:14.842Z,3.40
2024-02-14T06:43:02.281Z,3.93
2024-02-14T06:45:49.842Z,3.90
2024-02-14T06:48:45.677Z,3.87
2024-02-14T06:51:32.807Z,3.70
2024-02-14T06:54:20.674Z,3.30
2024-02-14T06:57:08.707Z,3.43
2024-02-14T06:59:55.787Z,3.50
2024-02-14T07:02:44.170Z,3.70
2024-02-14T07:05:31.388Z,3.70
2024-02-14T07:08:18.416Z,3.47
2024-02-14T07:11:05.393Z,3.63
2024-02-14T07:13:52.760Z,3.20
2024-02-14T07:16:39.711Z,3.70
2024-02-14T07:19:26.858Z,3.23
2024-02-14T07:22:13.921Z,3.40
2024-02-14T07:25:01.150Z,3.50
2024-02-14T07:27:50.551Z,3.30
2024-02-14T07:30:37.850Z,3.10
2024-02-14T07:33:25.277Z,3.40
2024-02-14T07:36:12.415Z,3.57
2024-02-14T07:38:59.901Z,3.13
2024-02-14T07:41:47.406Z,2.90
2024-02-14T07:44:35.518Z,3.30
2024-02-14T07:47:22.823Z,3.40
2024-02-14T07:50:10.278Z,3.20
2024-02-14T07:52:57.315Z,3.30
2024-02-14T07:55:44.296Z,4.50
2024-02-14T07:58:31.271Z,4.03
2024-02-14T08:01:18.266Z,3.53
2024-02-14T08:04:05.849Z,3.70
2024-02-14T08:06:52.858Z,3.77
2024-02-14T08:09:40.502Z,3.73
2024-02-14T08:12:27.467Z,4.07
2024-02-14T08:15:14.752Z,3.77
2024-02-14T08:18:03.943Z,3.00
2024-02-14T08:20:56.619Z,3.17
2024-02-14T08:23:44.284Z,3.13
2024-02-14T08:26:32.845Z,3.23
2024-02-14T08:29:20.212Z,3.00
2024-02-14T08:32:07.425Z,3.17
2024-02-14T08:34:54.558Z,3.20
2024-02-14T08:37:41.706Z,2.87
2024-02-14T08:40:28.802Z,3.20
2024-02-14T08:43:15.874Z,3.20
2024-02-14T08:46:03.979Z,3.30
2024-02-14T08:48:51.387Z,4.10
2024-02-14T08:51:39.319Z,4.00
2024-02-14T08:54:26.556Z,4.13
2024-02-14T08:57:13.730Z,3.13
2024-02-14T09:00:01.948Z,2.70
2024-02-14T09:02:49.250Z,2.00
2024-02-14T09:05:37.044Z,1.97
2024-02-14T09:08:25.154Z,2.00
2024-02-14T09:11:13.427Z,2.07
2024-02-14T09:14:05.699Z,2.17
2024-02-14T09:16:52.739Z,2.07
2024-02-14T09:19:39.801Z,2.20
2024-02-14T09:22:26.873Z,2.10
2024-02-14T09:25:15.100Z,2.20
2024-02-14T09:28:02.088Z,2.43
2024-02-14T09:30:49.167Z,2.07
2024-02-14T09:33:38.000Z,1.70
2024-02-14T09:36:28.108Z,2.40
2024-02-14T09:39:18.597Z,2.50
2024-02-14T09:42:11.080Z,2.60
2024-02-14T09:45:01.005Z,2.80
2024-02-14T09:47:49.720Z,2.40
2024-02-14T09:50:37.485Z,2.20
2024-02-14T09:53:24.854Z,2.00
2024-02-14T09:56:13.304Z,2.30
2024-02-14T09:59:03.790Z,2.57
2024-02-14T10:01:52.373Z,2.10
2024-02-14T10:04:40.256Z,2.20
2024-02-14T10:07:27.317Z,2.10
2024-02-14T10:10:15.326Z,2.00
2024-02-14T10:13:06.046Z,2.03
2024-02-14T10:15:53.079Z,1.90
2024-02-14T10:18:40.548Z,1.80
2024-02-14T10:21:29.518Z,1.83
2024-02-14T10:24:16.949Z,1.83
2024-02-14T10:27:09.923Z,1.80
2024-02-14T10:29:57.548Z,2.00
2024-02-14T10:32:49.912Z,1.80
2024-02-14T10:35:39.140Z,1.80
2024-02-14T10:38:28.181Z,2.50
2024-02-14T10:41:15.540Z,2.10
2024-02-14T10:44:06.622Z,1.90
2024-02-14T10:46:56.609Z,1.60
2024-02-14T10:49:44.307Z,2.13
2024-02-14T10:52:36.208Z,2.10
2024-02-14T10:55:29.055Z,1.93
2024-02-14T10:58:19.784Z,1.90
2024-02-14T11:01:08.865Z,1.90
2024-02-14T11:03:58.676Z,1.90
2024-02-14T11:06:47.611Z,1.30
2024-02-14T11:09:39.725Z,1.80
2024-02-14T11:12:27.224Z,1.80
2024-02-14T11:15:25.822Z,1.70
2024-02-14T11:18:13.162Z,1.73
2024-02-14T11:21:00.337Z,1.60
2024-02-14T11:23:55.255Z,1.57
2024-02-14T11:26:48.675Z,1.40
2024-02-14T11:29:35.782Z,1.30
2024-02-14T11:32:23.481Z,1.60
2024-02-14T11:35:14.243Z,1.47
2024-02-14T11:38:01.637Z,1.40
2024-02-14T11:40:49.731Z,1.30
2024-02-14T11:43:36.705Z,1.40
2024-02-14T11:46:23.688Z,1.30
2024-02-14T11:49:11.019Z,1.40
2024-02-14T11:51:58.081Z,1.70
2024-02-14T11:54:51.455Z,1.30
2024-02-14T11:57:38.744Z,1.30
2024-02-14T12:00:25.932Z,1.40
2024-02-14T12:03:23.136Z,1.43
2024-02-14T12:06:10.987Z,1.20
2024-02-14T12:08:58.289Z,1.43
2024-02-14T12:11:47.098Z,1.20
2024-02-14T12:14:34.429Z,1.40
2024-02-14T12:17:23.058Z,1.33
2024-02-14T12:20:15.012Z,1.30
2024-02-14T12:23:02.105Z,1.10
2024-02-14T12:25:49.423Z,1.47
2024-02-14T12:28:37.863Z,1.87
2024-02-14T12:31:25.809Z,2.00
2024-02-14T12:34:13.892Z,1.93
2024-02-14T12:37:01.443Z,2.37
2024-02-14T12:39:48.594Z,2.27
2024-02-14T12:42:36.792Z,2.20
2024-02-14T12:45:24.666Z,2.30
2024-02-14T12:48:14.905Z,2.40
2024-02-14T12:51:02.292Z,2.23
2024-02-14T12:53:49.350Z,2.97
2024-02-14T12:56:36.470Z,2.80
2024-02-14T12:59:23.720Z,2.90
2024-02-14T13:02:10.764Z,3.10
2024-02-14T13:04:57.742Z,2.47
2024-02-14T13:07:45.219Z,2.30
2024-02-14T13:10:32.642Z,2.20
2024-02-14T13:13:19.660Z,2.00
2024-02-14T13:16:07.586Z,2.07
2024-02-14T13:18:55.055Z,2.20
2024-02-14T13:21:46.498Z,1.90
2024-02-14T13:24:33.560Z,2.27
2024-02-14T13:27:24.451Z,2.00
2024-02-14T13:30:14.619Z,2.20
2024-02-14T13:33:02.038Z,2.23
2024-02-14T13:35:49.237Z,2.07
2024-02-14T13:38:36.975Z,1.73
2024-02-14T13:41:24.057Z,1.63
2024-02-14T13:44:11.328Z,1.70
2024-02-14T13:46:58.313Z,1.70
2024-02-14T13:49:45.639Z,1.60
2024-02-14T13:52:32.814Z,1.70
2024-02-14T13:55:20.216Z,1.50
2024-02-14T13:58:07.194Z,1.10
2024-02-14T14:00:54.252Z,1.30
2024-02-14T14:03:42.066Z,1.40
2024-02-14T14:06:29.564Z,1.20
2024-02-14T14:09:16.803Z,1.13
2024-02-14T14:12:04.151Z,1.17
2024-02-14T14:14:51.231Z,1.30
2024-02-14T14:17:38.475Z,1.10
2024-02-14T14:20:25.647Z,1.00
2024-02-14T14:23:12.663Z,1.30
2024-02-14T14:26:01.546Z,1.50
2024-02-14T14:28:48.687Z,1.50
2024-02-14T14:31:36.949Z,1.47
2024-02-14T14:34:24.159Z,1.63
2024-02-14T14:37:11.468Z,1.50
2024-02-14T14:39:58.513Z,1.33
2024-02-14T14:42:45.552Z,1.20
2024-02-14T14:45:32.600Z,1.10
2024-02-14T14:48:19.863Z,1.27
2024-02-14T14:51:07.237Z,1.20
2024-02-14T14:53:54.352Z,1.40
2024-02-14T14:56:41.653Z,1.10
2024-02-14T14:59:28.649Z,1.03
2024-02-14T15:02:15.753Z,1.10
2024-02-14T15:05:02.763Z,1.40
2024-02-14T15:07:50.450Z,1.20
2024-02-14T15:10:40.306Z,1.20
2024-02-14T15:13:28.431Z,1.40
2024-02-14T15:16:15.466Z,1.40
2024-02-14T15:19:02.917Z,1.33
2024-02-14T15:21:50.548Z,1.30
2024-02-14T15:24:40.482Z,1.30
2024-02-14T15:27:30.189Z,1.20
2024-02-14T15:30:35.872Z,1.40
2024-02-14T15:33:24.186Z,2.00
2024-02-14T15:36:16.593Z,2.00
2024-02-14T15:39:04.403Z,1.80
2024-02-14T15:41:51.442Z,1.83
2024-02-14T15:44:38.498Z,1.83
2024-02-14T15:47:25.839Z,1.67
2024-02-14T15:50:12.894Z,1.40
2024-02-14T15:53:00.023Z,1.13
2024-02-14T15:55:47.260Z,1.17
2024-02-14T15:58:34.251Z,1.10
2024-02-14T16:01:21.805Z,1.00
2024-02-14T16:04:09.330Z,1.47
2024-02-14T16:06:57.002Z,1.20
2024-02-14T16:09:44.004Z,1.53
2024-02-14T16:12:30.968Z,1.30
2024-02-14T16:15:18.646Z,1.30
2024-02-14T16:18:06.173Z,1.53
2024-02-14T16:20:53.558Z,1.50
2024-02-14T16:23:40.757Z,1.63
2024-02-14T16:26:30.155Z,1.60
2024-02-14T16:29:18.365Z,1.80
2024-02-14T16:32:07.862Z,1.50
2024-02-14T16:34:55.142Z,1.60
2024-02-14T16:37:42.881Z,1.70
2024-02-14T16:40:32.489Z,1.40
2024-02-14T16:43:20.617Z,1.80
2024-02-14T16:46:07.679Z,1.70
2024-02-14T16:48:54.920Z,1.77
2024-02-14T16:51:42.066Z,2.40
2024-02-14T16:54:29.557Z,2.13
2024-02-14T16:57:18.707Z,2.23
2024-02-14T17:00:08.551Z,2.20
2024-02-14T17:02:59.632Z,1.57
2024-02-14T17:05:50.137Z,1.80
2024-02-14T17:08:38.285Z,1.73
2024-02-14T17:11:26.518Z,1.83
2024-02-14T17:14:13.891Z,1.43
2024-02-14T17:17:01.124Z,1.80
2024-02-14T17:19:48.201Z,1.60
2024-02-14T17:22:35.239Z,1.60
2024-02-14T17:25:22.787Z,1.50
2024-02-14T17:28:09.769Z,1.33
2024-02-14T17:30:56.782Z,1.70
2024-02-14T17:33:43.841Z,2.00
2024-02-14T17:36:31.519Z,1.97
2024-02-14T17:39:18.568Z,2.40
2024-02-14T17:42:05.641Z,2.13
2024-02-14T17:44:52.745Z,2.37
2024-02-14T17:47:39.896Z,2.07
2024-02-14T17:50:27.803Z,2.60
2024-02-14T17:53:14.857Z,3.20
2024-02-14T17:56:01.892Z,3.30
2024-02-14T17:58:49.104Z,3.70
2024-02-14T18:01:36.940Z,4.00
2024-02-14T18:04:25.479Z,2.93
2024-02-14T18:07:12.614Z,2.30
2024-02-14T18:09:59.713Z,2.67
2024-02-14T18:12:46.963Z,3.00
2024-02-14T18:15:34.512Z,2.80
2024-02-14T18:18:21.987Z,3.33
2024-02-14T18:21:09.129Z,5.40
2024-02-14T18:23:56.211Z,5.00
2024-02-14T18:26:43.362Z,4.47
2024-02-14T18:29:30.761Z,4.83
2024-02-14T18:32:19.248Z,4.87
2024-02-14T18:35:06.410Z,2.97
2024-02-14T18:37:53.474Z,2.50
2024-02-14T18:40:41.250Z,1.90
2024-02-14T18:43:28.667Z,1.40
2024-02-14T18:46:15.653Z,1.60
2024-02-14T18:49:02.798Z,1.90
2024-02-14T18:51:50.604Z,1.70
2024-02-14T18:54:37.598Z,1.90
2024-02-14T18:57:24.889Z,3.17
2024-02-14T19:00:12.888Z,4.17
2024-02-14T19:03:00.459Z,4.60
2024-02-14T19:05:47.602Z,5.20
2024-02-14T19:08:34.637Z,6.03
2024-02-14T19:11:21.761Z,5.87
2024-02-14T19:14:09.662Z,6.67
2024-02-14T19:16:56.684Z,6.20
2024-02-14T19:19:45.117Z,6.30
2024-02-14T19:22:33.396Z,5.23
2024-02-14T19:25:20.398Z,5.40
2024-02-14T19:28:10.459Z,5.50
2024-02-14T19:30:57.734Z,5.60
2024-02-14T19:33:46.763Z,4.87
2024-02-14T19:36:36.760Z,5.03
2024-02-14T19:39:23.906Z,5.70
2024-02-14T19:42:10.992Z,5.43
2024-02-14T19:44:58.775Z,5.67
2024-02-14T19:47:50.403Z,5.67
2024-02-14T19:50:37.483Z,5.33
2024-02-14T19:53:24.493Z,4.93
2024-02-14T19:56:11.782Z,5.30
2024-02-14T19:58:58.907Z,5.27
2024-02-14T20:01:45.914Z,4.97
2024-02-14T20:04:33.084Z,5.47
2024-02-14T20:07:20.575Z,5.30
2024-02-14T20:10:08.213Z,4.90
2024-02-14T20:12:55.317Z,5.07
2024-02-14T20:15:42.366Z,4.87
2024-02-14T20:18:29.404Z,5.23
2024-02-14T20:21:16.655Z,5.20
2024-02-14T20:24:05.096Z,5.57
2024-02-14T20:26:52.229Z,5.47
2024-02-14T20:29:39.290Z,4.83
2024-02-14T20:32:27.661Z,5.70
2024-02-14T20:35:15.787Z,5.20
2024-02-14T20:38:03.310Z,5.80
2024-02-14T20:40:51.135Z,5.10
2024-02-14T20:43:38.117Z,5.30
2024-02-14T20:46:25.129Z,6.17
2024-02-14T20:49:13.326Z,6.37
2024-02-14T20:52:00.691Z,6.50
2024-02-14T20:54:47.689Z,6.87
2024-02-14T20:57:34.749Z,6.40
2024-02-14T21:00:22.223Z,6.20
2024-02-14T21:03:09.572Z,5.93
2024-02-14T21:05:56.648Z,6.37
2024-02-14T21:08:43.714Z,6.53
2024-02-14T21:11:30.711Z,5.83
2024-02-14T21:14:17.705Z,5.90
2024-02-14T21:17:04.923Z,6.17
2024-02-14T21:19:51.980Z,6.10
2024-02-14T21:22:39.196Z,6.07
2024-02-14T21:25:27.518Z,6.23
2024-02-14T21:28:14.520Z,6.80
2024-02-14T21:31:01.526Z,6.10
2024-02-14T21:33:48.712Z,6.67
2024-02-14T21:36:37.607Z,5.60
2024-02-14T21:39:24.639Z,6.40
2024-02-14T21:42:11.703Z,6.07
2024-02-14T21:44:59.510Z,5.87
2024-02-14T21:47:46.776Z,5.53
2024-02-14T21:50:33.934Z,6.43
2024-02-14T21:53:21.433Z,5.90
2024-02-14T21:56:08.395Z,5.70
2024-02-14T21:58:56.943Z,5.47
2024-02-14T22:01:43.954Z,5.77
2024-02-14T22:04:31.110Z,5.87
2024-02-14T22:07:18.188Z,5.90
2024-02-14T22:10:08.226Z,6.03
2024-02-14T22:12:57.002Z,6.53
2024-02-14T22:15:44.009Z,5.57
2024-02-14T22:18:31.157Z,6.00
2024-02-14T22:21:18.352Z,5.53
2024-02-14T22:24:06.861Z,5.43
2024-02-14T22:26:54.012Z,5.73
2024-02-14T22:29:41.124Z,5.70
2024-02-14T22:32:28.588Z,5.27
2024-02-14T22:35:15.732Z,5.03
2024-02-14T22:38:04.133Z,5.23
2024-02-14T22:40:51.299Z,5.00
2024-02-14T22:43:38.266Z,4.87
2024-02-14T22:46:25.292Z,4.70
2024-02-14T22:49:12.983Z,5.33
2024-02-14T22:52:00.045Z,4.90
2024-02-14T22:54:47.009Z,5.00
2024-02-14T22:57:33.963Z,4.87
2024-02-14T23:00:23.589Z,5.57
2024-02-14T23:03:13.996Z,4.80
2024-02-14T23:06:02.606Z,5.13
2024-02-14T23:08:49.882Z,4.97
2024-02-14T23:11:40.548Z,4.87
2024-02-14T23:14:28.110Z,5.10
2024-02-14T23:17:15.158Z,4.77
2024-02-14T23:20:03.528Z,4.70
2024-02-14T23:22:50.645Z,5.07
2024-02-14T23:25:38.576Z,4.80
2024-02-14T23:28:25.588Z,4.97
2024-02-14T23:31:12.675Z,4.93
2024-02-14T23:34:00.997Z,5.20
2024-02-14T23:36:48.211Z,5.13
2024-02-14T23:39:35.181Z,4.73
2024-02-14T23:42:22.602Z,5.43
2024-02-14T23:45:11.764Z,4.90
2024-02-14T23:47:59.818Z,5.60
2024-02-14T23:50:51.686Z,4.40
2024-02-14T23:53:39.313Z,3.80
2024-02-14T23:56:26.442Z,3.97
2024-02-14T23:59:14.935Z,3.07
